Aérodrome :
LOGIN :

S'inscrire | Disclaimer

   EN    FR    IT 

 










Légende :    VFR   VFR Marginal   IFR   IFR Intensif   IFR Très Intensif
Visi : 
Plafond : 
>= 8 km
>= 3000ft
5 à 8 km
1000 à 3000 ft
1500m à 5 km
500 à 1000 ft
800 à 1500m
200 à 500 ft
< 800m
< 200 ft
Symboles :   Orages  Brouillard  Fortes neiges  Fortes précipitations  Vent > 20 kt
SIGMETs :   Divers  Orages  Givrage  Turbulence  Onde Orograph.  Cendres Volcan.






- Altitude de l'aérodrome : 330 ft
- Code IATA : LVA


LFOV - Laval-Entrammes

DERNIER METAR :
  • 090430Z AUTO 01004KT 0300 FG VV/// 14/14 Q1017

METARs EXPIRÉS :
  • 090400Z AUTO VRB02KT 0350 0300 FG VV/// 14/14 Q1017
  • 090330Z AUTO 35004KT 310V010 0450 FG VV/// 14/14 Q1017
  • 090300Z AUTO 35005KT 1000 BR VV/// 14/14 Q1017
  • 090230Z AUTO 36004KT CAVOK 14/14 Q1018
  • 090200Z AUTO 35004KT CAVOK 15/14 Q1018

TAF N/A



MET'MAP, la Météo Aéronautique d'un coup d'oeil ! - Copyright ORBIFLY Décembre 2007 - Disclaimer

ORBIFLY MET'MAP TEAM :

Programmation & Développement : Alexandra Zaïnal
Sur une idée originale de : Baudouin d'Aumeries
Assistance à la programmation : Marc-Olivier Méhu
Soutien technique & logistique : Manuel Goepfert

Contact : metmap@orbifly.com




SOURCES & CREDITS :

   NOAA